createdAt,value
2022-11-30T00:00:12.604Z,6.35
2022-11-30T00:00:44.140Z,6.23
2022-11-30T00:01:15.784Z,6.03
2022-11-30T00:01:47.491Z,5.67
2022-11-30T00:02:19.297Z,5.65
2022-11-30T00:02:51.220Z,5.64
2022-11-30T00:03:23.102Z,5.69
2022-11-30T00:03:54.800Z,6.40
2022-11-30T00:04:26.452Z,6.07
2022-11-30T00:04:58.092Z,6.41
2022-11-30T00:05:35.570Z,6.24
2022-11-30T00:06:07.219Z,5.73
2022-11-30T00:06:38.854Z,5.94
2022-11-30T00:07:10.497Z,6.73
2022-11-30T00:07:42.162Z,6.34
2022-11-30T00:08:13.883Z,5.84
2022-11-30T00:08:45.520Z,5.88
2022-11-30T00:09:17.162Z,6.39
2022-11-30T00:09:48.804Z,6.14
2022-11-30T00:10:20.445Z,6.14
2022-11-30T00:10:57.617Z,6.07
2022-11-30T00:11:29.261Z,5.56
2022-11-30T00:12:00.797Z,6.91
2022-11-30T00:12:32.450Z,6.55
2022-11-30T00:13:04.078Z,5.77
2022-11-30T00:13:35.721Z,6.50
2022-11-30T00:14:07.362Z,6.32
2022-11-30T00:14:39.004Z,5.46
2022-11-30T00:15:10.646Z,5.51
2022-11-30T00:15:42.289Z,6.60
2022-11-30T00:16:19.603Z,6.24
2022-11-30T00:16:51.650Z,5.97
2022-11-30T00:17:23.461Z,5.89
2022-11-30T00:17:55.087Z,6.04
2022-11-30T00:22:37.721Z,5.26
2022-11-30T00:23:09.983Z,5.68
2022-11-30T00:23:41.623Z,6.06
2022-11-30T00:24:13.261Z,5.55
2022-11-30T00:24:45.407Z,6.55
2022-11-30T00:25:17.261Z,5.92
2022-11-30T00:25:54.636Z,5.95
2022-11-30T00:26:26.278Z,6.58
2022-11-30T00:26:57.919Z,5.50
2022-11-30T00:27:29.663Z,5.86
2022-11-30T00:28:01.305Z,5.67
2022-11-30T00:32:43.945Z,6.27
2022-11-30T00:33:15.569Z,6.51
2022-11-30T00:37:58.704Z,5.86
2022-11-30T00:38:30.363Z,6.05
2022-11-30T00:43:12.662Z,5.54
2022-11-30T00:43:44.290Z,5.89
2022-11-30T00:48:26.515Z,6.71
2022-11-30T00:48:58.157Z,5.82
2022-11-30T00:53:40.781Z,5.87
2022-11-30T00:54:12.421Z,6.17
2022-11-30T00:54:44.378Z,5.47
2022-11-30T00:55:16.218Z,5.66
2022-11-30T00:55:47.857Z,5.21
2022-11-30T00:56:19.704Z,5.56
2022-11-30T00:56:51.347Z,5.68
2022-11-30T00:57:22.986Z,5.32
2022-11-30T00:57:54.626Z,5.81
2022-11-30T00:58:26.270Z,6.02
2022-11-30T00:58:57.900Z,5.29
2022-11-30T00:59:29.555Z,5.49
2022-11-30T01:00:01.183Z,5.72
2022-11-30T01:00:32.938Z,6.34
2022-11-30T01:01:04.530Z,6.28
2022-11-30T01:01:41.831Z,5.61
2022-11-30T01:02:13.543Z,5.84
2022-11-30T01:02:45.273Z,5.95
2022-11-30T01:03:16.973Z,5.51
2022-11-30T01:03:48.626Z,5.30
2022-11-30T01:04:20.369Z,5.36
2022-11-30T01:09:34.121Z,5.52
2022-11-30T01:10:05.770Z,6.10
2022-11-30T01:10:37.510Z,5.76
2022-11-30T01:11:09.146Z,5.46
2022-11-30T01:11:40.788Z,5.54
2022-11-30T01:12:12.431Z,5.86
2022-11-30T01:12:49.601Z,5.79
2022-11-30T01:13:21.653Z,5.45
2022-11-30T01:13:53.294Z,5.43
2022-11-30T01:14:24.934Z,6.02
2022-11-30T01:14:56.575Z,5.78
2022-11-30T01:19:33.976Z,5.76
2022-11-30T01:20:05.618Z,5.88
2022-11-30T01:25:19.066Z,5.80
2022-11-30T01:25:50.705Z,5.52
2022-11-30T01:26:22.346Z,5.09
2022-11-30T01:26:54.192Z,5.09
2022-11-30T01:27:25.834Z,5.24
2022-11-30T01:27:57.475Z,5.66
2022-11-30T01:28:35.158Z,5.01
2022-11-30T01:29:06.806Z,5.56
2022-11-30T01:29:38.444Z,5.62
2022-11-30T01:30:10.082Z,6.05
2022-11-30T01:30:41.863Z,6.77
2022-11-30T01:31:13.611Z,5.68
2022-11-30T01:31:45.314Z,5.53
2022-11-30T01:32:16.956Z,5.34
2022-11-30T01:32:48.600Z,4.94
2022-11-30T01:33:25.668Z,6.20
2022-11-30T01:33:57.301Z,6.12
2022-11-30T01:34:28.949Z,5.41
2022-11-30T01:35:01.921Z,4.96
2022-11-30T01:35:33.567Z,5.55
2022-11-30T01:40:16.699Z,6.16
2022-11-30T01:40:48.340Z,5.47
2022-11-30T01:41:19.981Z,5.24
2022-11-30T01:41:51.624Z,4.78
2022-11-30T01:42:23.267Z,5.64
2022-11-30T01:42:54.906Z,4.96
2022-11-30T01:43:26.535Z,5.17
2022-11-30T01:44:03.615Z,5.54
2022-11-30T01:44:35.256Z,5.84
2022-11-30T01:45:06.901Z,5.19
2022-11-30T01:45:38.548Z,5.30
2022-11-30T01:46:10.224Z,5.66
2022-11-30T01:46:41.926Z,5.09
2022-11-30T01:47:13.566Z,5.23
2022-11-30T01:47:45.413Z,5.26
2022-11-30T01:48:17.055Z,4.80
2022-11-30T01:48:48.697Z,5.18
2022-11-30T01:49:25.664Z,5.22
2022-11-30T01:49:57.405Z,4.55
2022-11-30T01:50:29.049Z,5.08
2022-11-30T01:51:02.536Z,5.71
2022-11-30T01:55:44.642Z,5.53
2022-11-30T01:56:16.490Z,4.26
2022-11-30T02:00:40.783Z,5.16
2022-11-30T02:01:12.499Z,5.09
2022-11-30T02:01:44.195Z,5.46
2022-11-30T02:05:37.640Z,5.86
2022-11-30T02:06:09.283Z,5.79
2022-11-30T02:06:40.923Z,4.83
2022-11-30T02:07:12.610Z,5.34
2022-11-30T02:07:44.529Z,6.04
2022-11-30T02:08:16.353Z,4.94
2022-11-30T02:08:48.101Z,5.26
2022-11-30T02:09:19.739Z,4.73
2022-11-30T02:09:51.388Z,5.28
2022-11-30T02:10:23.022Z,5.18
2022-11-30T02:11:00.716Z,5.27
2022-11-30T02:11:32.352Z,4.89
2022-11-30T02:12:03.992Z,4.92
2022-11-30T02:12:35.638Z,5.25
2022-11-30T02:13:07.275Z,4.98
2022-11-30T02:13:38.916Z,5.50
2022-11-30T02:14:10.558Z,5.16
2022-11-30T02:14:42.201Z,4.59
2022-11-30T02:15:13.944Z,5.02
2022-11-30T02:15:45.720Z,4.79
2022-11-30T02:16:22.553Z,5.36
2022-11-30T02:16:54.400Z,5.49
2022-11-30T02:21:36.613Z,5.11
2022-11-30T02:22:08.252Z,5.14
2022-11-30T02:22:39.895Z,5.23
2022-11-30T02:23:11.536Z,5.27
2022-11-30T02:23:43.179Z,4.90
2022-11-30T02:24:15.323Z,4.72
2022-11-30T02:24:47.178Z,5.12
2022-11-30T02:25:19.126Z,4.93
2022-11-30T02:25:50.767Z,5.45
2022-11-30T02:26:27.631Z,4.98
2022-11-30T02:26:59.376Z,5.15
2022-11-30T02:27:31.017Z,5.21
2022-11-30T02:28:02.760Z,4.72
2022-11-30T02:28:34.391Z,4.35
2022-11-30T02:29:06.045Z,5.68
2022-11-30T02:29:37.684Z,5.29
2022-11-30T02:30:09.327Z,4.63
2022-11-30T02:30:41.028Z,5.44
2022-11-30T02:31:12.724Z,4.78
2022-11-30T02:31:49.679Z,5.22
2022-11-30T02:32:21.321Z,4.16
2022-11-30T02:36:59.231Z,5.56
2022-11-30T02:37:30.874Z,5.56
2022-11-30T02:38:02.515Z,5.22
2022-11-30T02:38:34.156Z,4.97
2022-11-30T02:39:05.797Z,5.28
2022-11-30T02:39:37.440Z,4.85
2022-11-30T02:40:09.074Z,5.02
2022-11-30T02:40:40.725Z,4.79
2022-11-30T02:41:17.689Z,4.92
2022-11-30T02:41:49.334Z,4.75
2022-11-30T02:42:20.973Z,4.45
2022-11-30T02:42:52.617Z,4.85
2022-11-30T02:47:34.723Z,4.70
2022-11-30T02:48:06.364Z,4.30
2022-11-30T02:48:38.008Z,4.39
2022-11-30T02:49:09.648Z,4.71
2022-11-30T02:49:41.291Z,4.80
2022-11-30T02:50:12.930Z,4.61
2022-11-30T02:50:44.572Z,5.07
2022-11-30T02:51:21.640Z,4.93
2022-11-30T02:51:53.289Z,4.70
2022-11-30T02:52:24.926Z,4.53
2022-11-30T02:52:56.565Z,5.03
2022-11-30T02:53:28.206Z,4.67
2022-11-30T02:53:59.850Z,5.15
2022-11-30T02:54:31.491Z,4.88
2022-11-30T02:55:03.132Z,5.33
2022-11-30T02:55:34.804Z,4.63
2022-11-30T02:56:06.414Z,4.99
2022-11-30T02:56:43.695Z,5.32
2022-11-30T02:57:15.330Z,5.10
2022-11-30T02:57:46.974Z,4.92
2022-11-30T02:58:18.613Z,4.51
2022-11-30T03:03:00.487Z,4.39
2022-11-30T03:03:32.160Z,4.09
2022-11-30T03:04:03.792Z,5.13
2022-11-30T03:04:35.443Z,4.51
2022-11-30T03:05:07.075Z,5.20
2022-11-30T03:05:38.726Z,4.79
2022-11-30T03:06:10.359Z,4.50
2022-11-30T03:06:42.009Z,4.41
2022-11-30T03:07:49.981Z,4.75
2022-11-30T03:08:21.749Z,4.65
2022-11-30T03:08:53.387Z,5.37
2022-11-30T03:09:25.029Z,4.64
2022-11-30T03:09:56.670Z,5.37
2022-11-30T03:10:28.517Z,3.97
2022-11-30T03:11:00.159Z,4.99
2022-11-30T03:11:31.799Z,4.55
2022-11-30T03:12:03.442Z,5.11
2022-11-30T03:12:40.715Z,4.95
2022-11-30T03:13:12.355Z,4.67
2022-11-30T03:13:43.997Z,5.22
2022-11-30T03:18:26.726Z,4.51
2022-11-30T03:18:58.356Z,4.55
2022-11-30T03:19:30.007Z,4.64
2022-11-30T03:20:01.645Z,4.94
2022-11-30T03:20:33.289Z,4.63
2022-11-30T03:21:04.919Z,4.43
2022-11-30T03:21:36.574Z,4.98
2022-11-30T03:22:08.220Z,4.76
2022-11-30T03:22:39.854Z,4.32
2022-11-30T03:23:16.719Z,4.63
2022-11-30T03:23:48.361Z,4.13
2022-11-30T03:24:20.005Z,4.46
2022-11-30T03:24:51.643Z,4.78
2022-11-30T03:25:23.286Z,4.45
2022-11-30T03:25:54.926Z,4.62
2022-11-30T03:26:26.567Z,4.99
2022-11-30T03:26:58.210Z,4.52
2022-11-30T03:27:29.853Z,4.82
2022-11-30T03:28:01.492Z,4.28
2022-11-30T03:28:38.868Z,4.56
2022-11-30T03:29:10.510Z,4.62
2022-11-30T03:29:42.150Z,4.24
2022-11-30T03:30:13.792Z,4.63
2022-11-30T03:30:45.623Z,5.13
2022-11-30T03:31:17.330Z,4.67
2022-11-30T03:31:49.024Z,4.18
2022-11-30T03:32:20.667Z,4.58
2022-11-30T03:32:52.307Z,4.53
2022-11-30T03:33:29.682Z,4.58
2022-11-30T03:34:01.327Z,4.56
2022-11-30T03:34:32.965Z,4.41
2022-11-30T03:35:04.612Z,4.90
2022-11-30T03:35:36.247Z,4.85
2022-11-30T03:36:07.889Z,4.41
2022-11-30T03:36:39.531Z,4.24
2022-11-30T03:37:11.172Z,4.18
2022-11-30T03:37:42.817Z,4.92
2022-11-30T03:38:19.682Z,4.48
2022-11-30T03:38:51.319Z,4.35
2022-11-30T03:39:22.961Z,4.32
2022-11-30T03:39:58.131Z,4.51
2022-11-30T03:40:30.237Z,4.90
2022-11-30T03:41:01.775Z,4.61
2022-11-30T03:41:33.418Z,4.95
2022-11-30T03:42:05.060Z,4.33
2022-11-30T03:42:36.700Z,4.38
2022-11-30T03:43:08.241Z,4.28
2022-11-30T03:43:45.717Z,4.29
2022-11-30T03:44:17.359Z,4.42
2022-11-30T03:44:49.232Z,4.43
2022-11-30T03:45:21.056Z,4.49
2022-11-30T03:45:52.693Z,4.91
2022-11-30T03:46:24.378Z,5.30
2022-11-30T03:46:56.066Z,5.37
2022-11-30T03:47:27.719Z,4.98
2022-11-30T03:47:59.355Z,4.56
2022-11-30T03:48:31.004Z,4.47
2022-11-30T03:49:38.894Z,4.02
2022-11-30T03:50:10.535Z,4.45
2022-11-30T03:50:42.178Z,4.34
2022-11-30T03:51:13.818Z,4.04
2022-11-30T03:51:45.358Z,4.15
2022-11-30T03:52:16.999Z,4.32
2022-11-30T03:52:48.641Z,4.48
2022-11-30T03:53:20.283Z,4.34
2022-11-30T03:53:58.177Z,4.02
2022-11-30T03:54:29.812Z,4.16
2022-11-30T03:55:01.457Z,3.93
2022-11-30T03:55:33.099Z,4.44
2022-11-30T03:59:26.770Z,4.81
2022-11-30T04:00:00.362Z,4.82
2022-11-30T04:00:32.000Z,4.58
2022-11-30T04:01:03.640Z,3.66
2022-11-30T04:01:35.368Z,4.25
2022-11-30T04:02:07.061Z,4.15
2022-11-30T04:02:44.289Z,4.05
2022-11-30T04:03:16.416Z,4.64
2022-11-30T04:03:48.089Z,4.40
2022-11-30T04:04:25.782Z,4.30
2022-11-30T04:04:57.410Z,4.24
2022-11-30T04:05:29.072Z,4.58
2022-11-30T04:10:11.790Z,4.04
2022-11-30T04:10:43.426Z,4.63
2022-11-30T04:15:26.771Z,4.11
2022-11-30T04:15:58.527Z,3.92
2022-11-30T04:20:40.909Z,4.27
2022-11-30T04:21:12.572Z,3.82
2022-11-30T04:25:54.784Z,4.22
2022-11-30T04:26:26.425Z,4.18
2022-11-30T04:31:08.788Z,4.82
2022-11-30T04:31:40.532Z,4.43
2022-11-30T04:32:12.228Z,4.65
2022-11-30T04:32:43.869Z,4.29
2022-11-30T04:33:15.521Z,4.52
2022-11-30T04:33:47.152Z,4.94
2022-11-30T04:34:18.793Z,4.18
2022-11-30T04:34:50.434Z,4.47
2022-11-30T04:35:22.076Z,4.44
2022-11-30T04:35:53.725Z,4.23
2022-11-30T04:36:30.788Z,4.18
2022-11-30T04:37:02.428Z,3.63
2022-11-30T04:37:34.070Z,4.24
2022-11-30T04:38:05.813Z,4.70
2022-11-30T04:38:37.442Z,4.90
2022-11-30T04:39:09.096Z,4.32
2022-11-30T04:39:40.726Z,4.84
2022-11-30T04:40:12.379Z,4.40
2022-11-30T04:40:44.022Z,4.66
2022-11-30T04:41:15.663Z,3.71
2022-11-30T04:41:52.730Z,3.97
2022-11-30T04:42:24.367Z,4.01
2022-11-30T04:42:56.325Z,4.29
2022-11-30T04:43:27.964Z,4.68
2022-11-30T04:43:59.604Z,4.22
2022-11-30T04:44:31.245Z,4.71
2022-11-30T04:45:02.887Z,4.71
2022-11-30T04:45:35.633Z,4.71
2022-11-30T04:46:07.559Z,3.94
2022-11-30T04:46:39.295Z,4.41
2022-11-30T04:47:16.629Z,4.94
2022-11-30T04:51:53.715Z,4.43
2022-11-30T04:56:31.832Z,4.64
2022-11-30T04:57:03.472Z,4.26
2022-11-30T04:57:40.746Z,4.82
2022-11-30T05:01:27.672Z,4.18
2022-11-30T05:01:59.440Z,4.80
2022-11-30T05:02:31.150Z,4.25
2022-11-30T05:03:08.733Z,4.33
2022-11-30T05:03:40.382Z,4.67
2022-11-30T05:04:12.119Z,4.21
2022-11-30T05:04:43.795Z,4.29
2022-11-30T05:05:15.502Z,4.47
2022-11-30T05:05:47.146Z,4.28
2022-11-30T05:06:18.792Z,4.13
2022-11-30T05:06:50.324Z,4.52
2022-11-30T05:07:22.030Z,4.48
2022-11-30T05:07:53.743Z,4.64
2022-11-30T05:08:30.778Z,3.99
2022-11-30T05:09:02.420Z,4.14
2022-11-30T05:09:33.960Z,4.61
2022-11-30T05:10:05.600Z,4.11
2022-11-30T05:10:37.247Z,3.67
2022-11-30T05:11:08.885Z,4.45
2022-11-30T05:11:40.525Z,4.57
2022-11-30T05:12:12.166Z,4.31
2022-11-30T05:12:43.705Z,4.26
2022-11-30T05:13:15.349Z,4.35
2022-11-30T05:13:52.824Z,4.16
2022-11-30T05:14:24.469Z,4.82
2022-11-30T05:14:56.099Z,4.35
2022-11-30T05:15:27.749Z,4.27
2022-11-30T05:15:59.658Z,4.28
2022-11-30T05:16:31.378Z,3.73
2022-11-30T05:17:02.984Z,4.71
2022-11-30T05:17:34.623Z,4.66
2022-11-30T05:18:06.263Z,4.26
2022-11-30T05:18:37.905Z,4.10
2022-11-30T05:19:14.770Z,4.12
2022-11-30T05:19:46.411Z,4.07
2022-11-30T05:20:18.052Z,3.91
2022-11-30T05:20:49.695Z,3.76
2022-11-30T05:21:21.335Z,3.94
2022-11-30T05:21:52.978Z,4.55
2022-11-30T05:22:26.055Z,4.99
2022-11-30T05:22:57.796Z,3.62
2022-11-30T05:23:29.336Z,4.24
2022-11-30T05:24:00.976Z,3.88
2022-11-30T05:25:08.972Z,4.49
2022-11-30T05:25:40.612Z,4.79
2022-11-30T05:26:12.252Z,3.80
2022-11-30T05:26:43.900Z,3.93
2022-11-30T05:27:22.217Z,4.69
2022-11-30T05:27:54.240Z,4.36
2022-11-30T05:28:25.885Z,4.05
2022-11-30T05:33:08.301Z,4.51
2022-11-30T05:33:39.943Z,4.13
2022-11-30T05:34:11.585Z,4.16
2022-11-30T05:34:50.644Z,3.86
2022-11-30T05:35:28.794Z,3.67
2022-11-30T05:36:02.507Z,4.35
2022-11-30T05:36:37.606Z,4.08
2022-11-30T05:37:09.249Z,3.65
2022-11-30T05:37:40.890Z,3.95
2022-11-30T05:38:12.636Z,4.20
2022-11-30T05:38:44.274Z,4.54
2022-11-30T05:39:15.919Z,5.12
2022-11-30T05:39:47.563Z,3.90
2022-11-30T05:40:24.833Z,4.13
2022-11-30T05:40:56.475Z,3.61
2022-11-30T05:41:28.123Z,3.99
2022-11-30T05:41:59.961Z,3.39
2022-11-30T05:42:31.605Z,4.18
2022-11-30T05:43:03.246Z,3.98
2022-11-30T05:43:34.884Z,4.68
2022-11-30T05:48:17.087Z,4.21
2022-11-30T05:48:48.740Z,4.03
2022-11-30T05:53:31.261Z,4.03
2022-11-30T05:54:02.901Z,3.33
2022-11-30T05:54:34.542Z,3.77
2022-11-30T05:55:06.185Z,4.54
2022-11-30T05:55:37.815Z,4.53
2022-11-30T05:56:14.793Z,4.05
2022-11-30T05:56:50.309Z,4.39
2022-11-30T05:57:25.961Z,4.50
2022-11-30T05:57:57.601Z,4.24
2022-11-30T05:58:29.243Z,3.80
2022-11-30T05:59:00.781Z,4.11
2022-11-30T05:59:32.426Z,4.21
2022-11-30T06:04:15.046Z,4.31
2022-11-30T06:05:23.043Z,3.57
2022-11-30T06:05:54.683Z,3.86
2022-11-30T06:06:26.322Z,4.30
2022-11-30T06:06:57.965Z,4.06
2022-11-30T06:07:29.648Z,4.34
2022-11-30T06:08:01.818Z,4.22
2022-11-30T06:08:33.503Z,4.44
2022-11-30T06:09:05.156Z,4.44
2022-11-30T06:09:36.787Z,3.66
2022-11-30T06:10:13.855Z,3.79
2022-11-30T06:10:45.487Z,4.10
2022-11-30T06:11:17.142Z,3.24
2022-11-30T06:11:48.779Z,4.23
2022-11-30T06:12:20.424Z,3.93
2022-11-30T06:12:52.065Z,4.06
2022-11-30T06:13:28.711Z,4.24
2022-11-30T06:14:00.567Z,4.50
2022-11-30T06:14:32.210Z,4.13
2022-11-30T06:15:03.850Z,4.11
2022-11-30T06:15:40.816Z,5.29
2022-11-30T06:16:12.516Z,4.45
2022-11-30T06:16:44.299Z,4.13
2022-11-30T06:17:15.945Z,4.30
2022-11-30T06:17:47.587Z,4.07
2022-11-30T06:18:19.227Z,4.24
2022-11-30T06:18:50.871Z,3.75
2022-11-30T06:19:22.509Z,4.58
2022-11-30T06:19:54.156Z,4.27
2022-11-30T06:21:02.044Z,4.29
2022-11-30T06:21:33.690Z,3.94
2022-11-30T06:22:05.327Z,4.32
2022-11-30T06:22:36.968Z,3.68
2022-11-30T06:23:08.611Z,3.94
2022-11-30T06:23:40.250Z,4.40
2022-11-30T06:24:11.893Z,3.90
2022-11-30T06:24:43.758Z,4.31
2022-11-30T06:25:15.487Z,3.80
2022-11-30T06:25:52.859Z,4.41
2022-11-30T06:26:24.500Z,4.34
2022-11-30T06:26:56.142Z,4.31
2022-11-30T06:27:27.785Z,4.32
2022-11-30T06:27:59.424Z,4.27
2022-11-30T06:28:32.705Z,3.98
2022-11-30T06:29:04.964Z,3.80
2022-11-30T06:29:36.604Z,4.04
2022-11-30T06:32:52.809Z,3.84
2022-11-30T06:33:24.620Z,4.37
2022-11-30T06:33:56.075Z,4.66
2022-11-30T06:34:27.479Z,4.16
2022-11-30T06:35:00.303Z,4.31
2022-11-30T06:35:32.084Z,3.73
2022-11-30T06:36:03.853Z,3.74
2022-11-30T06:36:36.404Z,4.05
2022-11-30T06:37:08.297Z,3.86
2022-11-30T06:37:40.091Z,4.09
2022-11-30T06:38:11.606Z,4.12
2022-11-30T06:38:43.009Z,4.34
2022-11-30T06:39:14.399Z,4.01
2022-11-30T06:40:37.266Z,4.19
2022-11-30T06:41:08.671Z,3.93
2022-11-30T06:41:40.242Z,4.43
2022-11-30T06:42:11.731Z,4.29
2022-11-30T06:42:43.127Z,4.33
2022-11-30T06:43:14.614Z,4.32
2022-11-30T06:43:46.008Z,4.14
2022-11-30T06:44:17.392Z,3.74
2022-11-30T06:44:49.003Z,4.22
2022-11-30T06:45:20.804Z,3.84
2022-11-30T06:45:52.244Z,4.88
2022-11-30T06:46:23.634Z,4.19
2022-11-30T06:46:55.029Z,4.28
2022-11-30T06:47:26.499Z,4.06
2022-11-30T06:47:57.975Z,4.13
2022-11-30T06:48:29.427Z,3.69
2022-11-30T06:49:00.984Z,4.02
2022-11-30T06:49:32.383Z,3.95
2022-11-30T06:50:03.787Z,4.20
2022-11-30T06:50:35.179Z,4.31
2022-11-30T06:51:06.591Z,4.41
2022-11-30T06:51:37.979Z,4.46
2022-11-30T06:52:09.382Z,4.50
2022-11-30T06:52:40.881Z,4.28
2022-11-30T06:53:12.294Z,4.06
2022-11-30T06:53:43.719Z,3.26
2022-11-30T06:54:15.102Z,3.68
2022-11-30T06:54:46.752Z,4.19
2022-11-30T06:55:18.487Z,4.59
2022-11-30T06:55:49.877Z,4.15
2022-11-30T06:56:21.318Z,4.49
2022-11-30T06:56:52.707Z,3.47
2022-11-30T06:57:24.092Z,4.18
2022-11-30T06:57:55.549Z,4.06
2022-11-30T06:58:26.934Z,4.13
2022-11-30T06:58:58.325Z,4.07
2022-11-30T06:59:29.742Z,4.60
2022-11-30T07:00:01.131Z,3.26
2022-11-30T07:00:32.520Z,3.37
2022-11-30T07:01:03.932Z,3.87
2022-11-30T07:01:35.363Z,4.05
2022-11-30T07:02:10.690Z,4.11
2022-11-30T07:02:44.449Z,3.78
2022-11-30T07:03:15.951Z,3.84
2022-11-30T07:03:47.518Z,4.27
2022-11-30T07:04:18.983Z,3.89
2022-11-30T07:04:50.682Z,4.42
2022-11-30T07:05:22.927Z,4.35
2022-11-30T07:05:54.367Z,4.20
2022-11-30T07:06:25.750Z,4.62
2022-11-30T07:06:57.145Z,4.55
2022-11-30T07:07:28.586Z,4.21
2022-11-30T07:08:00.097Z,3.65
2022-11-30T07:08:31.648Z,3.80
2022-11-30T07:09:03.091Z,3.57
2022-11-30T07:09:35.691Z,4.41
2022-11-30T07:10:07.207Z,4.34
2022-11-30T07:10:38.646Z,4.37
2022-11-30T07:11:11.048Z,4.31
2022-11-30T07:11:42.456Z,4.11
2022-11-30T07:12:13.859Z,3.79
2022-11-30T07:12:45.293Z,4.52
2022-11-30T07:13:17.613Z,4.01
2022-11-30T07:13:49.046Z,3.90
2022-11-30T07:14:20.435Z,4.06
2022-11-30T07:14:51.858Z,4.48
2022-11-30T07:15:23.263Z,4.13
2022-11-30T07:15:54.674Z,4.20
2022-11-30T07:16:26.205Z,4.33
2022-11-30T07:16:57.631Z,3.81
2022-11-30T07:17:29.453Z,3.92
2022-11-30T07:18:00.939Z,4.46
2022-11-30T07:18:32.829Z,4.17
2022-11-30T07:19:04.298Z,3.96
2022-11-30T07:19:35.725Z,4.37
2022-11-30T07:20:07.116Z,4.05
2022-11-30T07:20:38.618Z,4.12
2022-11-30T07:21:10.056Z,3.82
2022-11-30T07:21:41.490Z,4.08
2022-11-30T07:22:13.950Z,3.55
2022-11-30T07:22:45.666Z,4.28
2022-11-30T07:23:17.218Z,3.88
2022-11-30T07:23:55.576Z,4.42
2022-11-30T07:24:27.661Z,3.84
2022-11-30T07:24:59.315Z,4.12
2022-11-30T07:25:30.875Z,3.87
2022-11-30T07:26:02.688Z,4.16
2022-11-30T07:26:34.297Z,4.26
2022-11-30T07:27:05.861Z,4.32
2022-11-30T07:27:37.828Z,4.68
2022-11-30T07:28:09.297Z,3.86
2022-11-30T07:28:41.013Z,4.05
2022-11-30T07:29:12.802Z,4.06
2022-11-30T07:29:44.645Z,4.59
2022-11-30T07:30:16.302Z,4.32
2022-11-30T07:30:47.815Z,4.00
2022-11-30T07:31:19.255Z,4.16
2022-11-30T07:31:50.782Z,4.11
2022-11-30T07:32:22.333Z,4.19
2022-11-30T07:32:53.848Z,4.29
2022-11-30T07:33:25.449Z,3.86
2022-11-30T07:33:56.992Z,3.94
2022-11-30T07:34:28.608Z,4.24
2022-11-30T07:35:00.087Z,4.09
2022-11-30T07:35:32.100Z,4.24
2022-11-30T07:36:03.619Z,4.34
2022-11-30T07:36:35.153Z,3.90
2022-11-30T07:37:06.633Z,4.13
2022-11-30T07:37:38.053Z,3.99
2022-11-30T07:38:09.993Z,4.21
2022-11-30T07:38:41.533Z,4.05
2022-11-30T07:39:12.926Z,4.17
2022-11-30T07:39:44.541Z,3.91
2022-11-30T07:40:15.928Z,3.89
2022-11-30T07:40:47.330Z,4.01
2022-11-30T07:41:18.739Z,4.16
2022-11-30T07:41:50.493Z,4.57
2022-11-30T07:42:21.882Z,3.99
2022-11-30T07:42:54.229Z,4.05
2022-11-30T07:43:25.648Z,4.63
2022-11-30T07:43:57.103Z,4.73
2022-11-30T07:44:28.538Z,3.62
2022-11-30T07:45:00.477Z,4.77
2022-11-30T07:45:32.133Z,4.53
2022-11-30T07:46:03.730Z,3.86
2022-11-30T07:46:35.247Z,4.47
2022-11-30T07:47:06.668Z,4.28
2022-11-30T07:47:38.088Z,4.23
2022-11-30T07:48:09.484Z,4.12
2022-11-30T07:48:40.942Z,3.88
2022-11-30T07:49:12.328Z,4.04
2022-11-30T07:49:43.745Z,4.63
2022-11-30T07:50:15.236Z,4.95
2022-11-30T07:50:46.628Z,4.13
2022-11-30T07:51:18.030Z,4.49
2022-11-30T07:51:49.463Z,4.42
2022-11-30T07:52:20.851Z,4.44
2022-11-30T07:52:52.339Z,4.80
2022-11-30T07:53:23.765Z,4.21
2022-11-30T07:53:55.252Z,3.98
2022-11-30T07:54:26.688Z,3.82
2022-11-30T07:54:58.164Z,4.02
2022-11-30T07:55:29.721Z,4.28
2022-11-30T07:56:01.182Z,4.17
2022-11-30T07:56:32.613Z,3.61
2022-11-30T07:57:04.010Z,4.20
2022-11-30T07:57:35.451Z,4.09
2022-11-30T07:58:07.002Z,4.81
2022-11-30T07:58:38.419Z,4.18
2022-11-30T07:59:09.831Z,4.49
2022-11-30T07:59:41.273Z,4.12
2022-11-30T08:00:12.715Z,3.98
2022-11-30T08:00:44.265Z,4.41
2022-11-30T08:01:15.816Z,4.21
2022-11-30T08:01:47.400Z,3.96
2022-11-30T08:02:18.925Z,4.61
2022-11-30T08:02:50.418Z,4.12
2022-11-30T08:03:21.860Z,3.88
2022-11-30T08:03:53.294Z,3.92
2022-11-30T08:04:24.746Z,4.40
2022-11-30T08:04:56.336Z,4.91
2022-11-30T08:05:27.776Z,4.68
2022-11-30T08:05:59.271Z,3.71
2022-11-30T08:06:30.734Z,4.30
2022-11-30T08:07:02.163Z,4.41
2022-11-30T08:07:33.596Z,4.60
2022-11-30T08:08:04.999Z,4.24
2022-11-30T08:08:36.392Z,4.49
2022-11-30T08:09:07.824Z,4.35
2022-11-30T08:09:39.227Z,4.02
2022-11-30T08:10:10.624Z,4.05
2022-11-30T08:10:42.014Z,4.28
2022-11-30T08:11:13.502Z,4.09
2022-11-30T08:11:44.892Z,4.65
2022-11-30T08:12:16.294Z,4.41
2022-11-30T08:12:47.688Z,4.00
2022-11-30T08:13:19.122Z,4.00
2022-11-30T08:13:50.519Z,4.36
2022-11-30T08:14:21.921Z,4.11
2022-11-30T08:15:18.963Z,4.25
2022-11-30T08:15:44.694Z,3.66
2022-11-30T08:16:16.311Z,4.29
2022-11-30T08:16:47.785Z,4.53
2022-11-30T08:17:19.229Z,4.45
2022-11-30T08:17:50.619Z,4.19
2022-11-30T08:18:22.009Z,4.68
2022-11-30T08:18:53.428Z,4.73
2022-11-30T08:19:24.818Z,4.07
2022-11-30T08:19:56.214Z,4.24
2022-11-30T08:20:27.598Z,4.49
2022-11-30T08:20:59.126Z,4.47
2022-11-30T08:21:30.526Z,3.97
2022-11-30T08:22:01.941Z,4.19
2022-11-30T08:22:33.331Z,4.46
2022-11-30T08:23:04.795Z,4.21
2022-11-30T08:23:36.258Z,4.20
2022-11-30T08:24:07.807Z,4.50
2022-11-30T08:24:39.239Z,4.14
2022-11-30T08:25:10.711Z,4.22
2022-11-30T08:25:42.100Z,3.69
2022-11-30T08:26:13.636Z,3.60
2022-11-30T08:26:45.039Z,4.31
2022-11-30T08:27:16.455Z,4.51
2022-11-30T08:27:47.871Z,4.03
2022-11-30T08:28:19.267Z,4.28
2022-11-30T08:28:50.695Z,4.33
2022-11-30T08:29:22.108Z,4.21
2022-11-30T08:29:53.503Z,3.89
2022-11-30T08:30:29.371Z,3.99
2022-11-30T08:31:03.801Z,3.98
2022-11-30T08:31:35.334Z,4.16
2022-11-30T08:32:06.759Z,3.40
2022-11-30T08:32:38.166Z,3.91
2022-11-30T08:33:09.564Z,4.22
2022-11-30T08:33:40.962Z,4.22
2022-11-30T08:34:12.376Z,4.38
2022-11-30T08:34:43.778Z,4.01
2022-11-30T08:35:15.168Z,4.18
2022-11-30T08:35:46.578Z,4.39
2022-11-30T08:36:17.996Z,4.61
2022-11-30T08:36:51.986Z,3.95
2022-11-30T08:37:23.516Z,4.08
2022-11-30T08:37:54.915Z,4.07
2022-11-30T08:38:26.377Z,4.21
2022-11-30T08:38:57.774Z,4.14
2022-11-30T08:39:29.161Z,4.11
2022-11-30T08:40:00.554Z,4.46
2022-11-30T08:40:31.971Z,4.22
2022-11-30T08:41:03.379Z,4.22
2022-11-30T08:41:34.911Z,4.15
2022-11-30T08:42:06.330Z,4.07
2022-11-30T08:42:37.720Z,3.90
2022-11-30T08:43:09.126Z,3.85
2022-11-30T08:43:40.643Z,4.41
2022-11-30T08:44:12.048Z,3.82
2022-11-30T08:44:44.218Z,4.20
2022-11-30T08:45:15.654Z,3.89
2022-11-30T08:45:47.101Z,4.34
2022-11-30T08:47:10.099Z,3.80
2022-11-30T08:47:41.527Z,4.15
2022-11-30T08:48:12.917Z,4.42
2022-11-30T08:48:44.329Z,4.42
2022-11-30T08:49:24.158Z,4.27
2022-11-30T08:49:56.259Z,4.51
2022-11-30T08:50:27.653Z,4.20
2022-11-30T08:50:59.078Z,4.34
2022-11-30T08:51:47.527Z,4.33
2022-11-30T08:52:21.936Z,4.14
2022-11-30T08:52:53.349Z,3.76
2022-11-30T08:53:24.771Z,3.39
2022-11-30T08:53:56.178Z,4.47
2022-11-30T08:54:27.599Z,4.17
2022-11-30T08:54:59.004Z,3.78
2022-11-30T08:55:30.419Z,4.80
2022-11-30T08:56:01.832Z,4.40
2022-11-30T08:56:33.225Z,4.01
2022-11-30T08:57:04.705Z,4.50
2022-11-30T08:57:36.231Z,4.03
2022-11-30T08:58:07.620Z,3.99
2022-11-30T08:58:39.029Z,4.18
2022-11-30T08:59:10.424Z,3.43
2022-11-30T08:59:41.811Z,4.22
2022-11-30T09:00:13.215Z,4.68
2022-11-30T09:00:44.603Z,4.77
2022-11-30T09:01:16.016Z,4.56
2022-11-30T09:01:47.488Z,4.03
2022-11-30T09:02:19.210Z,4.46
2022-11-30T09:02:50.938Z,4.95
2022-11-30T09:03:22.341Z,4.00
2022-11-30T09:03:53.740Z,4.43
2022-11-30T09:04:25.150Z,4.14
2022-11-30T09:04:56.552Z,3.90
2022-11-30T09:05:27.985Z,4.30
2022-11-30T09:05:59.379Z,4.49
2022-11-30T09:06:30.775Z,3.83
2022-11-30T09:07:02.308Z,4.13
2022-11-30T09:07:33.789Z,4.14
2022-11-30T09:08:05.458Z,3.88
2022-11-30T09:08:39.665Z,3.93
2022-11-30T09:09:12.435Z,4.26
2022-11-30T09:09:43.964Z,4.44
2022-11-30T09:10:15.447Z,4.03
2022-11-30T09:10:46.839Z,4.06
2022-11-30T09:11:18.260Z,3.79
2022-11-30T09:11:49.653Z,3.68
2022-11-30T09:12:21.081Z,4.31
2022-11-30T09:12:52.473Z,4.10
2022-11-30T09:13:23.909Z,4.34
2022-11-30T09:13:55.299Z,4.65
2022-11-30T09:14:26.694Z,4.54
2022-11-30T09:14:58.870Z,4.18
2022-11-30T09:15:30.464Z,4.58
2022-11-30T09:16:01.955Z,4.50
2022-11-30T09:16:33.394Z,3.96
2022-11-30T09:17:04.808Z,3.99
2022-11-30T09:17:36.193Z,4.48
2022-11-30T09:18:07.606Z,3.87
2022-11-30T09:18:39.133Z,4.46
2022-11-30T09:19:11.839Z,4.15
2022-11-30T09:19:43.374Z,3.91
2022-11-30T09:20:14.774Z,4.80
2022-11-30T09:20:46.178Z,3.54
2022-11-30T09:21:17.564Z,4.19